METAR Data
IDs: Format: Raw Decoded Include TAF

Data at: 0008 UTC 30 May 2020

KSIY 292353Z AUTO 00000KT 10SM CLR 34/07 A2979 RMK AO2 SLP068 T03440067 10350 20278 56025